Time;durP1;ratioP1;P1;durP2;ratioP2;P2;SDS_P1;SDS_P2;PMS_P1;PMS_P2;Temp;Humidity;BMP_temperature;BMP_pressure;BME280_temperature;BME280_humidity;BME280_pressure;Samples;Min_cycle;Max_cycle;Signal;HPM_P1;HPM_P2
2021/07/21 00:01:12;;;;;;;11.57;9.83;;;18.80;99.90;;;;;;4994224;28;20639;-62
2021/07/21 00:03:38;;;;;;;11.47;10.27;;;18.80;99.90;;;;;;4993016;28;20205;-61
2021/07/21 00:06:03;;;;;;;11.17;9.63;;;18.70;99.90;;;;;;4992843;28;20197;-61
2021/07/21 00:08:29;;;;;;;11.40;10.20;;;18.70;99.90;;;;;;4994272;28;20202;-59
2021/07/21 00:13:27;;;;;;;11.57;10.07;;;18.60;99.90;;;;;;4994518;28;20177;-62
2021/07/21 00:13:40;;;;;;;12.77;9.77;;;18.50;99.90;;;;;;4994701;28;20207;-62
2021/07/21 00:16:19;;;;;;;13.23;10.20;;;18.50;99.90;;;;;;4994476;28;20541;-59
2021/07/21 00:18:59;;;;;;;11.80;10.20;;;18.50;99.90;;;;;;4994349;28;20263;-61
2021/07/21 00:21:26;;;;;;;13.40;10.63;;;18.50;99.90;;;;;;4994159;28;20694;-62
2021/07/21 00:23:51;;;;;;;12.40;10.10;;;18.50;99.90;;;;;;4993980;28;20219;-61
2021/07/21 00:26:17;;;;;;;13.83;10.20;;;18.40;99.90;;;;;;4994595;28;20209;-61
2021/07/21 00:28:43;;;;;;;11.13;9.33;;;18.40;99.90;;;;;;4994351;28;20188;-59
2021/07/21 00:31:15;;;;;;;11.70;10.30;;;18.40;99.90;;;;;;4994430;28;20225;-60
2021/07/21 00:33:40;;;;;;;12.87;10.97;;;18.30;99.90;;;;;;4994317;28;20227;-62
2021/07/21 00:36:06;;;;;;;14.67;11.20;;;18.30;99.90;;;;;;4994320;28;20196;-62
2021/07/21 00:38:32;;;;;;;13.20;11.03;;;18.20;99.90;;;;;;4994443;28;20682;-61
2021/07/21 00:40:57;;;;;;;13.60;11.20;;;18.30;99.90;;;;;;4996055;28;20635;-60
2021/07/21 00:43:23;;;;;;;12.53;11.13;;;18.20;99.90;;;;;;4997857;28;20208;-62
2021/07/21 00:45:48;;;;;;;14.03;12.53;;;18.20;99.90;;;;;;4998549;28;20204;-62
2021/07/21 00:48:14;;;;;;;15.30;12.90;;;18.20;99.90;;;;;;4996954;28;20220;-62
2021/07/21 00:50:40;;;;;;;12.20;10.93;;;18.30;99.90;;;;;;4997954;28;20622;-60
2021/07/21 00:53:05;;;;;;;12.20;10.90;;;18.30;99.90;;;;;;4997411;28;20237;-59
2021/07/21 00:55:31;;;;;;;11.47;10.27;;;18.30;99.90;;;;;;4997755;28;20405;-62
2021/07/21 00:57:57;;;;;;;13.57;11.00;;;18.30;99.90;;;;;;4998374;28;20272;-61
2021/07/21 01:00:23;;;;;;;13.10;10.87;;;18.30;99.90;;;;;;4998337;28;20185;-58
2021/07/21 01:02:50;;;;;;;14.20;10.43;;;18.30;99.90;;;;;;4997424;28;20213;-61
2021/07/21 01:05:23;;;;;;;13.03;11.00;;;18.30;99.90;;;;;;4997608;28;20205;-61
2021/07/21 01:07:50;;;;;;;11.27;10.07;;;18.30;99.90;;;;;;4997461;28;20186;-58
2021/07/21 01:10:18;;;;;;;13.87;10.57;;;18.30;99.90;;;;;;4996398;28;20533;-60
2021/07/21 01:13:05;;;;;;;12.23;9.87;;;18.20;99.90;;;;;;4997316;28;20199;-59
2021/07/21 01:15:51;;;;;;;13.87;10.37;;;18.20;99.90;;;;;;4997441;28;20925;-62
2021/07/21 01:18:27;;;;;;;14.70;9.93;;;18.10;99.90;;;;;;4997880;28;20215;-62
2021/07/21 01:21:32;;;;;;;11.67;10.13;;;18.10;99.90;;;;;;4997309;28;20541;-61
2021/07/21 01:24:09;;;;;;;13.43;10.47;;;18.10;99.90;;;;;;4997445;28;20222;-55
2021/07/21 01:27:09;;;;;;;12.93;10.13;;;18.00;99.90;;;;;;4997585;28;20215;-60
2021/07/21 01:29:37;;;;;;;12.70;9.87;;;17.80;99.90;;;;;;4997051;28;20171;-61
2021/07/21 01:32:04;;;;;;;12.33;9.80;;;17.70;99.90;;;;;;4997315;28;20610;-59
2021/07/21 01:34:32;;;;;;;11.63;10.23;;;17.70;99.90;;;;;;4997196;28;20198;-61
2021/07/21 01:36:58;;;;;;;11.23;9.40;;;17.70;99.90;;;;;;4997053;28;20182;-60
2021/07/21 01:39:36;;;;;;;11.73;10.23;;;17.70;99.90;;;;;;4994868;28;20174;-62
2021/07/21 01:42:06;;;;;;;12.47;10.50;;;17.70;99.90;;;;;;4996820;28;20177;-62
2021/07/21 01:44:38;;;;;;;12.80;10.03;;;17.70;99.90;;;;;;4996938;28;20198;-58
2021/07/21 01:47:04;;;;;;;11.87;10.33;;;17.70;99.90;;;;;;4997374;28;20208;-62
2021/07/21 01:49:33;;;;;;;13.60;11.23;;;17.70;99.90;;;;;;4997041;28;20165;-61
2021/07/21 01:52:02;;;;;;;13.27;10.40;;;17.60;99.90;;;;;;4996127;28;20227;-58
2021/07/21 01:54:30;;;;;;;11.60;9.93;;;17.70;99.90;;;;;;4997219;28;20193;-62
2021/07/21 01:56:57;;;;;;;11.43;9.83;;;17.70;99.90;;;;;;4996282;28;20562;-62
2021/07/21 01:59:25;;;;;;;13.80;10.67;;;17.70;99.90;;;;;;4996213;28;20182;-61
2021/07/21 02:01:52;;;;;;;13.70;10.07;;;17.60;99.90;;;;;;4994894;28;20227;-61
2021/07/21 02:04:18;;;;;;;10.83;9.40;;;17.60;99.90;;;;;;4995518;28;20196;-61
2021/07/21 02:06:43;;;;;;;11.37;9.97;;;17.60;99.90;;;;;;4996437;28;20209;-60
2021/07/21 02:09:10;;;;;;;10.90;9.60;;;17.70;99.90;;;;;;4996603;28;20577;-62
2021/07/21 02:11:38;;;;;;;11.87;9.87;;;17.70;99.90;;;;;;4996441;28;20181;-62
2021/07/21 02:14:05;;;;;;;11.30;10.10;;;17.70;99.90;;;;;;4996607;28;20208;-62
2021/07/21 02:16:31;;;;;;;10.63;9.13;;;17.60;99.90;;;;;;4995955;28;20244;-61
2021/07/21 02:18:58;;;;;;;11.73;9.13;;;17.60;99.90;;;;;;4995792;28;20178;-58
2021/07/21 02:21:25;;;;;;;10.47;9.37;;;17.60;99.90;;;;;;4996350;28;20178;-59
2021/07/21 02:23:53;;;;;;;11.43;10.23;;;17.60;99.90;;;;;;4996370;28;20197;-62
2021/07/21 02:26:19;;;;;;;12.37;9.53;;;17.60;99.90;;;;;;4996092;28;20722;-61
2021/07/21 02:28:48;;;;;;;10.10;9.00;;;17.60;99.90;;;;;;4996314;28;20174;-61
2021/07/21 02:31:20;;;;;;;12.57;9.63;;;17.60;99.90;;;;;;4995887;28;20212;-62
2021/07/21 02:34:02;;;;;;;10.53;9.40;;;17.60;99.90;;;;;;4996102;28;20216;-60
2021/07/21 02:36:27;;;;;;;11.00;9.13;;;17.60;99.90;;;;;;4995284;28;20182;-62
2021/07/21 02:38:53;;;;;;;10.17;9.13;;;17.60;99.90;;;;;;4995578;28;20200;-61
2021/07/21 02:41:19;;;;;;;10.77;9.43;;;17.60;99.90;;;;;;4996060;28;20192;-57
2021/07/21 02:43:45;;;;;;;12.37;9.20;;;17.60;99.90;;;;;;4996020;28;20248;-60
2021/07/21 02:46:10;;;;;;;10.93;9.27;;;17.60;99.90;;;;;;4994516;28;20217;-62
2021/07/21 02:48:37;;;;;;;11.67;9.80;;;17.60;99.90;;;;;;4996086;28;20187;-62
2021/07/21 02:51:11;;;;;;;10.63;9.53;;;17.60;99.90;;;;;;4995372;28;20204;-59
2021/07/21 02:53:41;;;;;;;10.60;8.90;;;17.50;99.90;;;;;;4995904;28;20275;-58
2021/07/21 02:56:10;;;;;;;10.10;8.93;;;17.60;99.90;;;;;;4995866;28;20235;-62
2021/07/21 02:59:16;;;;;;;11.70;10.17;;;17.60;99.90;;;;;;4996160;28;20284;-59
2021/07/21 03:01:47;;;;;;;12.93;10.53;;;17.60;99.90;;;;;;4935682;29;20624;-62
2021/07/21 03:04:17;;;;;;;12.40;9.57;;;17.50;99.90;;;;;;4933807;29;20211;-62
2021/07/21 03:06:44;;;;;;;11.57;9.90;;;17.50;99.90;;;;;;4935557;29;20300;-61
2021/07/21 03:09:11;;;;;;;11.53;10.33;;;17.50;99.90;;;;;;4935487;29;20206;-58
2021/07/21 03:11:38;;;;;;;11.00;8.93;;;17.40;99.90;;;;;;4935713;29;20179;-59
2021/07/21 03:14:04;;;;;;;12.10;9.73;;;17.40;99.90;;;;;;4935430;29;20620;-61
2021/07/21 03:16:32;;;;;;;11.43;10.17;;;17.40;99.90;;;;;;4935183;29;20186;-62
2021/07/21 03:19:02;;;;;;;11.47;8.87;;;17.40;99.90;;;;;;4934587;29;20198;-61
2021/07/21 03:21:29;;;;;;;10.23;9.07;;;17.30;99.90;;;;;;4935109;29;20310;-61
2021/07/21 03:23:55;;;;;;;11.30;9.03;;;17.30;99.90;;;;;;4935161;29;20206;-61
2021/07/21 03:26:21;;;;;;;10.60;9.20;;;17.30;99.90;;;;;;4935518;29;20219;-58
2021/07/21 03:28:49;;;;;;;11.37;9.17;;;17.20;99.90;;;;;;4919277;29;20184;-61
2021/07/21 03:31:15;;;;;;;10.50;9.07;;;17.10;99.90;;;;;;4936487;28;20199;-61
2021/07/21 03:33:44;;;;;;;13.50;8.57;;;17.00;99.90;;;;;;4994898;28;20313;-61
2021/07/21 03:36:10;;;;;;;9.87;8.63;;;16.90;99.90;;;;;;4995493;28;20196;-62
2021/07/21 03:38:37;;;;;;;11.63;9.20;;;16.90;99.90;;;;;;4994834;28;20181;-61
2021/07/21 03:41:03;;;;;;;10.10;9.00;;;16.80;99.90;;;;;;4994879;28;20255;-61
2021/07/21 03:43:30;;;;;;;11.10;9.90;;;16.90;99.90;;;;;;4994762;28;20201;-60
2021/07/21 03:45:58;;;;;;;10.90;9.13;;;17.90;99.90;;;;;;4994935;28;20216;-58
2021/07/21 03:48:25;;;;;;;11.00;9.50;;;16.90;99.90;;;;;;4994268;28;20178;-58
2021/07/21 03:50:53;;;;;;;11.47;9.03;;;16.80;99.90;;;;;;4995208;28;20177;-61
2021/07/21 03:53:19;;;;;;;12.03;9.30;;;16.80;99.90;;;;;;4994313;28;20205;-61
2021/07/21 03:55:45;;;;;;;10.67;9.13;;;16.80;99.90;;;;;;4994821;28;20181;-61
2021/07/21 03:58:11;;;;;;;10.63;8.93;;;16.80;99.90;;;;;;4994139;28;20268;-61
2021/07/21 04:00:37;;;;;;;10.80;8.87;;;16.80;99.90;;;;;;4994798;28;20174;-57
2021/07/21 04:03:04;;;;;;;11.77;9.40;;;16.90;99.90;;;;;;4994164;28;20193;-59
2021/07/21 04:05:31;;;;;;;12.23;9.33;;;16.80;99.90;;;;;;4992561;28;20299;-60
2021/07/21 04:07:57;;;;;;;10.40;8.83;;;16.90;99.90;;;;;;4994575;28;20172;-61
2021/07/21 04:10:26;;;;;;;11.53;9.77;;;16.90;99.90;;;;;;4994425;28;20245;-61
2021/07/21 04:12:54;;;;;;;9.87;8.40;;;16.90;99.90;;;;;;4994216;28;20189;-61
2021/07/21 04:15:24;;;;;;;12.27;9.23;;;16.90;99.90;;;;;;4994382;28;20635;-57
2021/07/21 04:17:54;;;;;;;9.90;8.50;;;16.80;99.90;;;;;;4994034;28;20165;-60
2021/07/21 04:20:20;;;;;;;9.17;8.17;;;16.80;99.90;;;;;;4993838;28;20200;-61
2021/07/21 04:22:46;;;;;;;9.53;8.53;;;16.80;99.90;;;;;;4994048;28;20192;-59
2021/07/21 04:25:18;;;;;;;10.40;9.10;;;16.90;99.90;;;;;;4994350;28;20197;-62
2021/07/21 04:27:44;;;;;;;9.23;8.33;;;16.80;99.90;;;;;;4994427;28;20537;-61
2021/07/21 04:30:11;;;;;;;10.97;8.97;;;16.90;99.90;;;;;;4994008;28;20196;-61
2021/07/21 04:32:37;;;;;;;11.30;9.07;;;16.90;99.90;;;;;;4993993;28;20622;-62
2021/07/21 04:35:05;;;;;;;10.73;9.33;;;16.90;99.90;;;;;;4994583;28;20173;-60
2021/07/21 04:37:31;;;;;;;10.47;8.90;;;16.90;99.90;;;;;;4993514;28;20656;-62
2021/07/21 04:39:57;;;;;;;10.67;9.50;;;17.00;99.90;;;;;;4992819;28;20208;-60
2021/07/21 04:42:26;;;;;;;10.60;8.97;;;17.00;99.90;;;;;;4993922;28;20180;-61
2021/07/21 04:44:52;;;;;;;11.07;9.00;;;17.10;99.90;;;;;;4994686;28;20573;-62
2021/07/21 04:47:19;;;;;;;11.07;9.33;;;17.10;99.90;;;;;;4993228;28;20629;-61
2021/07/21 04:49:45;;;;;;;9.57;8.57;;;17.20;99.90;;;;;;4993851;28;20197;-59
2021/07/21 04:52:13;;;;;;;10.20;8.70;;;17.20;99.90;;;;;;4994158;28;20180;-60
2021/07/21 04:54:39;;;;;;;11.53;9.47;;;17.30;99.90;;;;;;4994473;28;20173;-62
2021/07/21 04:57:07;;;;;;;10.90;9.00;;;17.30;99.90;;;;;;4994002;28;20256;-61
2021/07/21 04:59:33;;;;;;;9.77;8.77;;;17.30;99.90;;;;;;4993425;28;20243;-58
2021/07/21 05:01:59;;;;;;;11.07;9.23;;;17.30;99.90;;;;;;4994018;28;20220;-60
2021/07/21 05:04:24;;;;;;;10.60;9.50;;;17.40;99.90;;;;;;4993992;28;20193;-62
2021/07/21 05:06:50;;;;;;;10.63;9.10;;;17.40;99.90;;;;;;4994235;28;20232;-61
2021/07/21 05:09:16;;;;;;;10.43;8.70;;;17.50;99.90;;;;;;4993958;28;20646;-59
2021/07/21 05:11:41;;;;;;;11.00;8.77;;;17.60;99.90;;;;;;4994069;28;20185;-62
2021/07/21 05:14:07;;;;;;;10.67;9.10;;;17.60;99.90;;;;;;4993892;28;20192;-61
2021/07/21 05:16:34;;;;;;;11.50;9.37;;;17.70;99.90;;;;;;4994589;28;20190;-61
2021/07/21 05:19:00;;;;;;;10.97;8.47;;;17.70;99.90;;;;;;4993618;28;20717;-62
2021/07/21 05:21:27;;;;;;;9.70;8.70;;;17.70;99.90;;;;;;4993571;28;20638;-63
2021/07/21 05:23:53;;;;;;;10.43;8.63;;;17.80;99.90;;;;;;4989113;28;20284;-59
2021/07/21 05:26:19;;;;;;;11.40;8.77;;;17.90;99.90;;;;;;4988177;28;20210;-63
2021/07/21 05:28:44;;;;;;;11.63;9.00;;;18.00;99.90;;;;;;4996166;28;20231;-61
2021/07/21 05:31:10;;;;;;;10.43;9.13;;;18.00;99.90;;;;;;4996993;28;20181;-61
2021/07/21 05:33:36;;;;;;;11.13;9.07;;;18.00;99.90;;;;;;4997326;28;20206;-61
2021/07/21 05:36:03;;;;;;;9.80;8.70;;;18.00;99.90;;;;;;4997449;28;20639;-61
2021/07/21 05:38:29;;;;;;;9.27;8.13;;;18.10;99.90;;;;;;4997153;28;20573;-61
2021/07/21 05:40:55;;;;;;;11.10;9.30;;;18.10;99.90;;;;;;4997252;28;20626;-60
2021/07/21 05:43:22;;;;;;;10.10;8.97;;;18.20;99.90;;;;;;4996729;28;20207;-62
2021/07/21 05:45:48;;;;;;;10.13;8.67;;;18.30;99.90;;;;;;4997067;28;20562;-56
2021/07/21 05:48:14;;;;;;;9.87;8.77;;;18.40;99.90;;;;;;4996924;28;20178;-59
2021/07/21 05:50:39;;;;;;;10.97;9.10;;;18.50;99.90;;;;;;4996794;28;20286;-61
2021/07/21 05:53:05;;;;;;;11.27;8.70;;;18.60;99.90;;;;;;4996700;28;20195;-61
2021/07/21 05:55:31;;;;;;;9.83;8.83;;;18.70;99.90;;;;;;4996582;28;20182;-62
2021/07/21 05:57:57;;;;;;;9.23;8.23;;;18.70;99.90;;;;;;4992450;28;20264;-58
2021/07/21 06:00:22;;;;;;;10.63;8.60;;;18.70;99.90;;;;;;5006800;28;20284;-59
2021/07/21 06:02:48;;;;;;;10.33;8.30;;;18.70;99.90;;;;;;5013114;28;20532;-62
2021/07/21 06:05:13;;;;;;;10.70;8.63;;;18.90;99.90;;;;;;4983764;28;20199;-58
2021/07/21 06:07:39;;;;;;;9.80;8.40;;;19.00;99.90;;;;;;4994881;28;20183;-60
2021/07/21 06:10:06;;;;;;;10.37;8.90;;;19.10;99.90;;;;;;4995535;28;20276;-61
2021/07/21 06:12:32;;;;;;;10.20;9.10;;;19.20;99.90;;;;;;5015675;28;20188;-62
2021/07/21 06:14:58;;;;;;;10.90;9.70;;;19.20;99.90;;;;;;5005978;28;20260;-58
2021/07/21 06:17:24;;;;;;;12.47;9.47;;;19.20;99.90;;;;;;4996764;28;20263;-62
2021/07/21 06:19:49;;;;;;;10.77;8.50;;;19.20;99.90;;;;;;4991596;28;20199;-58
2021/07/21 06:22:18;;;;;;;9.60;8.60;;;19.10;99.90;;;;;;4983704;28;20224;-58
2021/07/21 06:24:45;;;;;;;9.73;8.70;;;19.10;99.90;;;;;;5015841;28;20227;-61
2021/07/21 06:27:10;;;;;;;10.30;7.97;;;19.20;99.90;;;;;;5008559;28;20192;-61
2021/07/21 06:29:36;;;;;;;9.90;7.93;;;19.20;99.90;;;;;;4981804;28;20182;-62
2021/07/21 06:32:02;;;;;;;8.50;7.67;;;19.30;99.90;;;;;;4986819;28;20185;-57
2021/07/21 06:34:27;;;;;;;9.73;8.37;;;19.30;99.90;;;;;;4978009;28;20197;-59
2021/07/21 06:36:53;;;;;;;10.47;7.60;;;19.40;99.90;;;;;;4976547;28;20186;-62
2021/07/21 06:39:18;;;;;;;8.83;7.43;;;19.50;99.90;;;;;;4976371;28;20178;-60
2021/07/21 06:41:44;;;;;;;8.70;7.80;;;19.50;99.90;;;;;;4976035;28;20253;-61
2021/07/21 06:44:09;;;;;;;9.43;8.27;;;19.40;99.90;;;;;;4976214;28;20608;-61
2021/07/21 06:46:35;;;;;;;9.93;8.20;;;19.40;99.90;;;;;;4976340;28;20681;-61
2021/07/21 06:49:00;;;;;;;9.97;7.80;;;19.50;99.90;;;;;;4976513;28;20209;-57
2021/07/21 06:51:26;;;;;;;9.93;8.00;;;19.70;99.90;;;;;;4976453;28;20263;-58
2021/07/21 06:53:52;;;;;;;9.50;7.90;;;19.80;99.90;;;;;;4976435;28;20202;-61
2021/07/21 06:56:17;;;;;;;8.87;7.57;;;19.90;99.90;;;;;;4976472;28;20174;-62
2021/07/21 06:58:43;;;;;;;8.60;7.73;;;20.00;99.90;;;;;;4976140;28;20762;-62
2021/07/21 07:01:09;;;;;;;8.90;8.00;;;19.90;99.90;;;;;;4976213;28;20205;-61
2021/07/21 07:03:35;;;;;;;8.17;7.37;;;20.00;99.90;;;;;;4975991;28;20201;-62
2021/07/21 07:06:02;;;;;;;9.37;7.37;;;20.00;99.90;;;;;;4976120;28;20206;-59
2021/07/21 07:08:28;;;;;;;8.50;7.60;;;20.20;99.90;;;;;;4976075;28;20265;-59
2021/07/21 07:10:54;;;;;;;8.70;7.40;;;20.40;99.90;;;;;;4976115;28;20178;-61
2021/07/21 07:13:20;;;;;;;8.47;7.57;;;20.50;99.90;;;;;;4975872;28;20198;-57
2021/07/21 07:15:46;;;;;;;8.17;7.37;;;20.70;99.90;;;;;;4975872;28;20697;-61
2021/07/21 07:18:15;;;;;;;7.93;7.13;;;20.50;99.90;;;;;;4976165;28;20216;-61
2021/07/21 07:20:41;;;;;;;9.10;7.70;;;20.50;99.90;;;;;;4975743;28;20173;-62
2021/07/21 07:23:07;;;;;;;9.60;7.87;;;20.70;99.90;;;;;;4975657;28;20542;-59
2021/07/21 07:25:32;;;;;;;8.33;7.53;;;20.70;99.90;;;;;;4975883;28;20197;-58
2021/07/21 07:27:58;;;;;;;8.57;7.67;;;20.90;99.90;;;;;;4975881;28;20264;-60
2021/07/21 07:30:24;;;;;;;7.77;6.97;;;21.10;99.90;;;;;;4975756;28;20170;-61
2021/07/21 07:32:49;;;;;;;7.82;7.03;;;21.20;99.90;;;;;;4975224;28;20201;-61
2021/07/21 07:35:15;;;;;;;9.00;7.63;;;21.10;99.90;;;;;;4975532;28;20186;-62
2021/07/21 07:37:41;;;;;;;8.27;7.13;;;21.00;99.90;;;;;;4975611;28;20248;-62
2021/07/21 07:40:07;;;;;;;9.25;7.30;;;21.00;99.90;;;;;;4975689;28;20252;-60
2021/07/21 07:42:33;;;;;;;8.30;7.50;;;21.20;99.90;;;;;;4975248;28;20335;-61
2021/07/21 07:44:59;;;;;;;9.13;7.57;;;21.30;99.90;;;;;;4974668;28;20211;-61
2021/07/21 07:47:24;;;;;;;8.55;7.65;;;21.40;99.90;;;;;;4975245;28;20206;-61
2021/07/21 07:49:50;;;;;;;8.10;7.30;;;21.30;99.90;;;;;;4974842;28;20216;-58
2021/07/21 07:52:15;;;;;;;8.48;6.97;;;21.50;99.90;;;;;;4974859;28;20221;-61
2021/07/21 07:54:41;;;;;;;9.68;7.28;;;21.50;99.90;;;;;;4975339;28;20178;-62
2021/07/21 07:57:07;;;;;;;7.30;6.55;;;21.70;99.90;;;;;;4975570;28;20655;-61
2021/07/21 07:59:32;;;;;;;9.43;7.63;;;21.90;99.90;;;;;;4975508;28;20187;-59
2021/07/21 08:01:58;;;;;;;8.50;7.05;;;22.10;99.90;;;;;;4975268;28;20205;-61
2021/07/21 08:04:24;;;;;;;8.07;7.15;;;22.10;99.90;;;;;;4975389;28;20205;-61
2021/07/21 08:06:49;;;;;;;8.35;7.35;;;22.30;99.90;;;;;;4975192;28;20242;-62
2021/07/21 08:09:15;;;;;;;8.15;7.35;;;22.50;99.90;;;;;;4974873;28;20216;-62
2021/07/21 08:11:48;;;;;;;8.85;7.30;;;22.70;99.90;;;;;;4974977;28;20256;-59
2021/07/21 08:14:14;;;;;;;7.90;7.07;;;22.80;99.90;;;;;;4975102;28;20233;-59
2021/07/21 08:16:41;;;;;;;9.73;7.50;;;22.60;99.90;;;;;;4992382;28;20175;-60
2021/07/21 08:19:07;;;;;;;8.13;7.32;;;22.60;99.90;;;;;;5005961;28;20189;-62
2021/07/21 08:21:32;;;;;;;9.23;7.75;;;22.60;99.90;;;;;;4992429;28;20268;-62
2021/07/21 08:23:58;;;;;;;8.00;7.20;;;22.50;99.90;;;;;;5005689;28;20661;-61
2021/07/21 08:26:23;;;;;;;8.85;7.95;;;22.40;99.90;;;;;;4996541;28;20204;-61
2021/07/21 08:28:49;;;;;;;8.40;7.50;;;22.40;99.90;;;;;;4993959;28;20213;-62
2021/07/21 08:31:14;;;;;;;7.97;7.10;;;22.30;99.90;;;;;;4992654;28;20633;-61
2021/07/21 08:33:41;;;;;;;7.65;6.88;;;22.40;99.90;;;;;;4994082;28;20299;-61
2021/07/21 08:36:07;;;;;;;8.45;7.35;;;22.40;99.90;;;;;;4996579;28;20171;-61
2021/07/21 08:38:32;;;;;;;10.23;7.45;;;22.70;99.90;;;;;;4992125;28;20251;-62
2021/07/21 08:41:00;;;;;;;8.63;7.70;;;22.90;99.90;;;;;;5000705;28;20572;-62
2021/07/21 08:43:27;;;;;;;9.60;7.82;;;23.20;99.90;;;;;;4993752;28;20197;-62
2021/07/21 08:45:53;;;;;;;8.55;7.22;;;23.50;99.90;;;;;;4994021;28;20200;-59
2021/07/21 08:48:18;;;;;;;8.32;7.40;;;23.60;99.90;;;;;;4992821;28;20200;-57
2021/07/21 08:50:46;;;;;;;8.93;7.32;;;23.60;99.90;;;;;;5000206;28;20200;-62
2021/07/21 08:53:14;;;;;;;9.20;7.75;;;23.80;99.90;;;;;;5005328;28;20611;-60
2021/07/21 08:55:40;;;;;;;8.52;7.25;;;23.90;99.90;;;;;;5001488;28;20208;-61
2021/07/21 08:58:05;;;;;;;7.93;7.13;;;24.00;99.90;;;;;;5005790;28;20259;-60
2021/07/21 09:00:33;;;;;;;8.68;7.78;;;24.10;99.90;;;;;;5003041;28;20219;-61
2021/07/21 09:02:59;;;;;;;9.35;8.20;;;24.10;99.90;;;;;;5005290;28;20212;-61
2021/07/21 09:05:24;;;;;;;9.65;7.93;;;24.40;99.90;;;;;;5005699;28;20201;-60
2021/07/21 09:07:50;;;;;;;10.40;8.27;;;24.30;99.90;;;;;;4997200;28;20204;-62
2021/07/21 09:10:20;;;;;;;10.63;8.27;;;24.40;99.90;;;;;;4995869;28;20192;-61
2021/07/21 09:12:49;;;;;;;8.88;7.97;;;24.20;99.90;;;;;;4997405;28;20223;-62
2021/07/21 09:15:17;;;;;;;9.35;7.80;;;23.70;99.90;;;;;;4997406;28;20533;-61
2021/07/21 09:18:04;;;;;;;10.52;8.18;;;23.40;99.90;;;;;;4997327;28;20170;-61
2021/07/21 09:20:31;;;;;;;9.57;8.13;;;23.00;99.90;;;;;;4983370;28;20177;-60
2021/07/21 09:22:57;;;;;;;9.50;8.23;;;22.90;99.90;;;;;;4997187;28;20196;-59
2021/07/21 09:25:28;;;;;;;9.95;8.48;;;22.90;99.90;;;;;;4996428;28;20206;-61
2021/07/21 09:27:59;;;;;;;8.18;7.38;;;22.90;99.90;;;;;;5003594;28;20187;-62
2021/07/21 09:30:33;;;;;;;8.35;7.55;;;23.30;99.90;;;;;;5001947;28;20169;-62
2021/07/21 09:33:00;;;;;;;8.82;8.02;;;23.70;99.90;;;;;;5007066;28;20205;-60
2021/07/21 09:35:32;;;;;;;8.80;7.90;;;23.90;99.90;;;;;;5005387;28;20188;-61
2021/07/21 09:38:05;;;;;;;8.57;7.68;;;24.00;99.90;;;;;;4995071;28;20180;-61
2021/07/21 09:40:31;;;;;;;8.20;7.40;;;24.10;99.90;;;;;;4995815;28;20188;-61
2021/07/21 09:42:57;;;;;;;9.43;8.30;;;24.20;99.90;;;;;;4996476;28;20650;-62
2021/07/21 09:45:23;;;;;;;9.40;7.88;;;24.50;99.90;;;;;;4998983;28;20209;-62
2021/07/21 09:47:56;;;;;;;8.48;7.68;;;24.70;99.90;;;;;;5009103;28;20185;-59
2021/07/21 09:50:24;;;;;;;8.30;7.50;;;24.80;99.90;;;;;;5006586;28;20173;-62
2021/07/21 09:53:02;;;;;;;8.55;7.70;;;24.80;99.90;;;;;;4997349;28;20264;-61
2021/07/21 09:55:28;;;;;;;8.45;7.65;;;24.60;99.90;;;;;;4993734;28;20197;-62
2021/07/21 09:58:00;;;;;;;8.77;7.93;;;24.70;99.90;;;;;;5001435;28;20172;-62
2021/07/21 10:00:30;;;;;;;8.95;8.05;;;24.60;99.90;;;;;;4994340;28;20181;-61
2021/07/21 10:03:12;;;;;;;8.50;7.70;;;24.50;99.90;;;;;;4979227;28;20197;-59
2021/07/21 10:05:56;;;;;;;8.45;7.65;;;24.40;99.90;;;;;;4995353;28;20193;-62
2021/07/21 10:08:30;;;;;;;9.50;8.50;;;24.40;99.90;;;;;;4993744;28;20292;-62
2021/07/21 10:10:57;;;;;;;8.68;7.78;;;24.60;99.90;;;;;;4994648;28;20177;-62
2021/07/21 10:13:22;;;;;;;9.10;7.82;;;24.90;99.90;;;;;;4994282;28;20720;-62
2021/07/21 10:15:49;;;;;;;8.73;7.82;;;24.60;99.90;;;;;;4995163;28;20336;-62
2021/07/21 10:18:16;;;;;;;8.57;7.78;;;24.60;99.90;;;;;;4994914;28;20264;-61
2021/07/21 10:20:44;;;;;;;8.25;7.32;;;24.60;99.90;;;;;;4994699;28;20289;-63
2021/07/21 10:23:12;;;;;;;8.88;7.60;;;24.70;99.90;;;;;;4996253;28;20212;-62
2021/07/21 10:25:38;;;;;;;8.35;7.50;;;24.60;99.90;;;;;;4996304;28;20252;-62
2021/07/21 10:28:08;;;;;;;8.57;7.57;;;24.60;99.90;;;;;;4996666;28;20177;-61
2021/07/21 10:30:36;;;;;;;9.27;7.65;;;24.70;99.90;;;;;;4996363;28;20526;-61
2021/07/21 10:33:02;;;;;;;8.27;7.45;;;24.90;99.90;;;;;;4995008;28;20221;-62
2021/07/21 10:35:29;;;;;;;9.10;7.57;;;25.30;99.90;;;;;;4996358;28;20177;-61
2021/07/21 10:37:56;;;;;;;8.48;7.55;;;25.50;99.90;;;;;;4996250;28;20184;-62
2021/07/21 10:40:26;;;;;;;9.15;7.50;;;25.60;99.90;;;;;;4996320;28;20208;-61
2021/07/21 10:42:57;;;;;;;7.85;7.15;;;25.30;99.90;;;;;;4995973;28;20251;-62
2021/07/21 10:45:28;;;;;;;8.15;7.30;;;25.00;99.90;;;;;;4996165;28;20197;-62
2021/07/21 10:48:01;;;;;;;8.20;7.22;;;25.00;99.90;;;;;;4995623;28;20192;-62
2021/07/21 10:53:22;;;;;;;8.23;7.43;;;25.10;99.90;;;;;;4995757;28;20193;-61
2021/07/21 10:59:10;;;;;;;8.57;7.65;;;25.00;99.90;;;;;;4995746;28;20185;-62
2021/07/21 11:01:26;;;;;;;7.80;6.97;;;25.20;99.90;;;;;;4995578;28;20237;-62
2021/07/21 11:04:01;;;;;;;9.88;7.78;;;25.50;99.90;;;;;;4995456;28;20681;-60
2021/07/21 11:06:41;;;;;;;7.82;7.03;;;25.90;99.90;;;;;;4995806;28;20200;-61
2021/07/21 11:09:22;;;;;;;7.47;6.68;;;26.40;99.90;;;;;;4995410;28;20333;-61
2021/07/21 11:11:57;;;;;;;9.38;7.72;;;26.70;99.90;;;;;;4995461;28;20177;-62
2021/07/21 11:14:25;;;;;;;8.10;7.20;;;27.00;99.90;;;;;;4995425;28;20548;-61
2021/07/21 11:16:53;;;;;;;7.97;7.18;;;26.90;99.90;;;;;;4995455;28;20173;-63
2021/07/21 11:19:35;;;;;;;8.20;7.40;;;26.90;99.90;;;;;;4995223;28;20637;-62
2021/07/21 11:22:05;;;;;;;7.47;6.78;;;27.00;99.90;;;;;;4995343;28;20638;-62
2021/07/21 11:25:02;;;;;;;8.00;6.72;;;27.20;99.90;;;;;;4994950;28;20244;-62
2021/07/21 11:27:41;;;;;;;7.05;6.28;;;27.40;99.90;;;;;;4995399;28;20658;-63
2021/07/21 11:30:49;;;;;;;7.57;6.70;;;27.50;98.80;;;;;;4995361;28;20235;-62
2021/07/21 11:33:50;;;;;;;8.38;6.55;;;27.50;99.90;;;;;;4994746;28;20201;-62
2021/07/21 11:36:43;;;;;;;6.47;5.88;;;27.50;99.90;;;;;;4995072;28;20177;-62
2021/07/21 11:39:34;;;;;;;6.93;6.25;;;27.60;99.90;;;;;;4995056;28;20181;-63
2021/07/21 11:42:00;;;;;;;6.82;6.15;;;27.70;99.90;;;;;;4994940;28;20165;-60
2021/07/21 11:44:31;;;;;;;6.80;6.10;;;27.90;99.90;;;;;;4994893;28;20398;-62
2021/07/21 11:47:03;;;;;;;8.10;6.80;;;27.90;99.90;;;;;;4995087;28;20209;-63
2021/07/21 11:49:32;;;;;;;7.05;6.32;;;28.10;98.20;;;;;;4994725;28;20208;-61
2021/07/21 11:52:05;;;;;;;7.20;6.50;;;28.30;98.70;;;;;;4994670;28;20169;-62
2021/07/21 11:54:37;;;;;;;8.07;6.65;;;28.20;96.90;;;;;;4994817;28;20689;-63
2021/07/21 11:57:05;;;;;;;7.22;6.57;;;27.90;95.90;;;;;;4994945;28;20208;-62
2021/07/21 11:59:36;;;;;;;6.78;6.07;;;27.80;97.70;;;;;;4994926;28;20181;-63
2021/07/21 12:02:13;;;;;;;7.13;6.32;;;27.80;97.60;;;;;;4994710;28;20642;-63
2021/07/21 12:04:43;;;;;;;7.72;6.32;;;27.60;96.80;;;;;;4994490;28;20179;-60
2021/07/21 12:07:10;;;;;;;8.98;6.40;;;27.60;96.30;;;;;;4994714;28;20197;-62
2021/07/21 12:09:38;;;;;;;7.43;6.40;;;27.10;95.70;;;;;;4993875;28;20201;-62
2021/07/21 12:12:06;;;;;;;7.15;6.45;;;26.60;95.70;;;;;;4994520;28;20663;-62
2021/07/21 12:14:32;;;;;;;6.53;5.93;;;26.60;96.20;;;;;;4994281;28;20201;-61
2021/07/21 12:17:12;;;;;;;7.95;6.47;;;26.90;99.80;;;;;;4994452;28;20205;-62
2021/07/21 12:19:40;;;;;;;7.68;6.45;;;27.10;98.10;;;;;;4994088;28;20169;-61
2021/07/21 12:22:14;;;;;;;7.65;6.65;;;27.20;98.40;;;;;;4994367;28;20173;-62
2021/07/21 12:24:47;;;;;;;7.32;6.63;;;27.30;99.90;;;;;;4994388;28;20177;-62
2021/07/21 12:27:20;;;;;;;8.65;6.53;;;27.30;98.00;;;;;;4994480;28;20209;-62
2021/07/21 12:29:45;;;;;;;6.82;6.22;;;27.40;96.60;;;;;;4990440;28;20534;-59
2021/07/21 12:32:17;;;;;;;6.57;5.88;;;27.40;97.70;;;;;;4986787;28;20236;-62
2021/07/21 12:34:47;;;;;;;6.40;5.80;;;27.50;98.40;;;;;;4979779;28;20173;-61
2021/07/21 12:37:15;;;;;;;6.13;5.53;;;27.60;98.60;;;;;;4986037;28;20248;-62
2021/07/21 12:39:42;;;;;;;6.15;5.55;;;27.70;96.10;;;;;;4991820;28;20185;-61
2021/07/21 12:42:14;;;;;;;7.05;6.35;;;27.70;97.50;;;;;;4989481;28;20169;-62
2021/07/21 12:44:42;;;;;;;6.75;6.15;;;27.90;97.50;;;;;;4997487;28;20173;-63
2021/07/21 12:47:27;;;;;;;5.82;5.28;;;28.30;99.40;;;;;;4997271;28;20271;-61
2021/07/21 12:49:56;;;;;;;6.18;5.57;;;28.20;98.90;;;;;;4997148;28;20696;-62
2021/07/21 12:52:26;;;;;;;6.15;5.55;;;28.40;97.30;;;;;;4996754;28;20205;-62
2021/07/21 12:54:56;;;;;;;6.90;6.20;;;28.50;99.40;;;;;;4997724;28;20181;-62